createdAt,value
2022-12-02T00:03:50.062Z,1.00
2022-12-02T00:08:55.459Z,1.00
2022-12-02T00:14:00.547Z,1.00
2022-12-02T00:19:04.590Z,1.00
2022-12-02T00:24:07.673Z,1.00
2022-12-02T00:29:10.514Z,1.00
2022-12-02T00:34:14.591Z,1.10
2022-12-02T00:39:17.503Z,1.00
2022-12-02T00:44:37.949Z,12.00
2022-12-02T00:49:42.063Z,25.80
2022-12-02T00:54:44.864Z,56.50
2022-12-02T00:59:47.609Z,25.90
2022-12-02T01:04:51.837Z,26.90
2022-12-02T01:09:54.718Z,5.30
2022-12-02T01:14:57.447Z,1.00
2022-12-02T01:20:01.645Z,1.00
2022-12-02T01:25:04.957Z,10.20
2022-12-02T01:30:08.912Z,16.90
2022-12-02T01:35:13.049Z,1.00
2022-12-02T01:40:16.816Z,1.00
2022-12-02T01:45:19.922Z,3.50
2022-12-02T01:50:24.251Z,1.00
2022-12-02T01:55:28.825Z,2.70
2022-12-02T02:00:31.684Z,1.00
2022-12-02T02:05:36.342Z,1.00
2022-12-02T02:10:40.734Z,1.00
2022-12-02T02:15:45.414Z,21.30
2022-12-02T02:20:49.947Z,1.00
2022-12-02T02:25:57.406Z,1.00
2022-12-02T02:31:00.626Z,1.00
2022-12-02T02:36:05.407Z,1.00
2022-12-02T02:41:09.958Z,1.00
2022-12-02T02:46:12.990Z,1.00
2022-12-02T02:51:16.430Z,1.00
2022-12-02T02:56:20.713Z,1.00
2022-12-02T03:01:28.253Z,1.00
2022-12-02T03:06:33.439Z,1.00
2022-12-02T03:11:40.707Z,1.00
2022-12-02T03:16:43.991Z,1.00
2022-12-02T03:21:47.449Z,1.00
2022-12-02T03:26:51.909Z,1.00
2022-12-02T03:31:54.762Z,1.00
2022-12-02T03:36:59.291Z,1.00
2022-12-02T03:42:04.139Z,1.00
2022-12-02T03:47:07.084Z,1.00
2022-12-02T03:52:10.025Z,1.00
2022-12-02T03:57:14.240Z,1.00
2022-12-02T04:02:17.204Z,1.00
2022-12-02T04:07:20.003Z,1.00
2022-12-02T04:12:24.127Z,1.00
2022-12-02T04:17:26.954Z,1.00
2022-12-02T04:22:29.696Z,1.00
2022-12-02T04:27:33.831Z,1.00
2022-12-02T04:32:36.600Z,1.00
2022-12-02T04:37:39.397Z,1.00
2022-12-02T04:42:43.483Z,1.00
2022-12-02T04:47:46.274Z,1.00
2022-12-02T04:52:48.994Z,1.00
2022-12-02T04:57:53.793Z,1.00
2022-12-02T05:02:57.180Z,1.00
2022-12-02T05:08:00.129Z,1.00
2022-12-02T05:13:04.344Z,1.00
2022-12-02T05:18:07.132Z,1.00
2022-12-02T05:23:10.221Z,1.00
2022-12-02T05:28:14.289Z,1.00
2022-12-02T05:33:17.098Z,1.00
2022-12-02T05:38:19.876Z,1.00
2022-12-02T05:43:26.109Z,1.00
2022-12-02T05:48:29.389Z,1.00
2022-12-02T05:53:32.167Z,1.00
2022-12-02T05:58:36.379Z,1.00
2022-12-02T06:03:42.132Z,1.00
2022-12-02T06:08:44.903Z,1.00
2022-12-02T06:13:49.355Z,1.00
2022-12-02T06:18:52.363Z,1.00
2022-12-02T06:23:58.633Z,1.00
2022-12-02T06:29:04.526Z,1.00
2022-12-02T06:34:31.405Z,1.00
2022-12-02T06:39:35.002Z,1.00
2022-12-02T06:45:14.981Z,1.00
2022-12-02T06:50:42.823Z,1.00
2022-12-02T06:55:46.992Z,1.00
2022-12-02T07:00:51.352Z,1.00
2022-12-02T07:05:54.984Z,1.00
2022-12-02T07:10:57.880Z,1.00
2022-12-02T07:16:02.001Z,1.00
2022-12-02T07:21:04.920Z,1.00
2022-12-02T07:26:10.402Z,1.00
2022-12-02T07:31:22.403Z,1.00
2022-12-02T07:36:25.229Z,1.00
2022-12-02T07:41:31.926Z,1.00
2022-12-02T07:46:39.237Z,1.00
2022-12-02T07:51:42.130Z,1.00
2022-12-02T07:56:44.952Z,1.00
2022-12-02T08:01:49.066Z,1.00
2022-12-02T08:06:51.904Z,1.00
2022-12-02T08:11:54.642Z,1.00
2022-12-02T08:16:58.854Z,1.00
2022-12-02T08:22:01.651Z,1.00
2022-12-02T08:27:17.165Z,1.00
2022-12-02T08:32:21.741Z,1.00
2022-12-02T08:37:24.534Z,1.00
2022-12-02T08:42:27.319Z,1.00
2022-12-02T08:47:31.474Z,1.00
2022-12-02T08:52:34.278Z,1.00
2022-12-02T08:57:37.020Z,1.00
2022-12-02T09:02:41.262Z,1.00
2022-12-02T09:07:44.462Z,1.00
2022-12-02T09:12:47.549Z,1.00
2022-12-02T09:17:51.904Z,1.00
2022-12-02T09:22:54.694Z,1.00
2022-12-02T09:27:57.948Z,1.00
2022-12-02T09:33:02.034Z,1.00
2022-12-02T09:38:04.818Z,1.00
2022-12-02T09:43:07.734Z,1.00
2022-12-02T09:48:11.862Z,1.00
2022-12-02T09:53:17.141Z,1.00
2022-12-02T09:58:21.695Z,1.00
2022-12-02T10:03:28.705Z,1.00
2022-12-02T10:08:32.632Z,99.90
2022-12-02T10:13:40.890Z,99.90
2022-12-02T10:18:45.326Z,99.90
2022-12-02T10:23:57.448Z,99.90
2022-12-02T10:29:03.546Z,99.90
2022-12-02T10:34:08.460Z,99.90
2022-12-02T10:39:26.137Z,99.90
2022-12-02T10:44:28.870Z,1.00
2022-12-02T10:49:35.642Z,1.00
2022-12-02T10:54:43.704Z,99.90
2022-12-02T10:59:46.803Z,1.00
2022-12-02T11:04:51.298Z,1.00
2022-12-02T11:09:56.339Z,1.00
2022-12-02T11:14:59.096Z,1.00
2022-12-02T11:20:29.725Z,1.00
2022-12-02T11:25:50.962Z,1.00
2022-12-02T11:31:23.462Z,99.90
2022-12-02T11:36:29.007Z,99.90
2022-12-02T11:41:53.553Z,99.90
2022-12-02T11:46:59.581Z,99.90
2022-12-02T11:52:19.240Z,99.90
2022-12-02T11:57:25.946Z,99.90
2022-12-02T12:02:30.210Z,99.90
2022-12-02T12:07:44.094Z,99.90
2022-12-02T12:13:12.187Z,1.00
2022-12-02T12:18:38.640Z,99.90
2022-12-02T12:23:43.247Z,1.00
2022-12-02T12:28:45.988Z,1.00
2022-12-02T12:33:50.081Z,1.00
2022-12-02T12:38:52.929Z,1.00
2022-12-02T12:43:55.675Z,1.00
2022-12-02T12:48:59.767Z,1.00
2022-12-02T12:54:02.515Z,1.00
2022-12-02T12:59:05.250Z,1.00
2022-12-02T13:04:09.390Z,1.00
2022-12-02T13:09:12.296Z,1.00
2022-12-02T13:14:15.065Z,1.00
2022-12-02T13:19:19.157Z,1.00
2022-12-02T13:24:21.907Z,1.00
2022-12-02T13:29:24.762Z,1.00
2022-12-02T13:34:28.864Z,1.00
2022-12-02T13:39:31.612Z,1.00
2022-12-02T13:44:36.154Z,1.00
2022-12-02T13:49:40.256Z,99.90
2022-12-02T14:00:00.092Z,12.90
2022-12-02T14:05:08.009Z,99.90
2022-12-02T14:10:11.789Z,1.00
2022-12-02T14:15:14.618Z,99.90
2022-12-02T14:20:18.987Z,1.00
2022-12-02T14:25:21.862Z,1.00
2022-12-02T14:30:24.646Z,67.30
2022-12-02T14:35:28.749Z,1.00
2022-12-02T14:40:31.885Z,1.00
2022-12-02T14:45:34.656Z,73.60
2022-12-02T14:50:38.892Z,99.90
2022-12-02T14:55:41.668Z,99.90
2022-12-02T15:00:44.542Z,1.00
2022-12-02T15:05:48.854Z,99.90
2022-12-02T15:10:52.047Z,99.90
2022-12-02T15:15:59.859Z,99.90
2022-12-02T15:21:12.150Z,99.90
2022-12-02T15:26:17.426Z,1.00
2022-12-02T15:31:20.943Z,1.00
2022-12-02T15:36:25.234Z,99.90
2022-12-02T15:41:28.072Z,99.90
2022-12-02T15:46:30.931Z,99.90
2022-12-02T15:51:35.106Z,99.90
2022-12-02T15:56:37.881Z,1.00
2022-12-02T16:01:40.821Z,1.00
2022-12-02T16:06:45.021Z,99.90
2022-12-02T16:11:47.803Z,1.00
2022-12-02T16:16:50.739Z,1.00
2022-12-02T16:21:54.915Z,1.00
2022-12-02T16:26:57.624Z,1.00
2022-12-02T16:32:00.425Z,1.00
2022-12-02T16:37:04.626Z,1.00
2022-12-02T16:42:07.433Z,1.00
2022-12-02T16:47:10.187Z,1.00
2022-12-02T16:52:14.406Z,1.00
2022-12-02T16:57:17.236Z,1.00
2022-12-02T17:02:20.144Z,1.00
2022-12-02T17:07:24.392Z,1.00
2022-12-02T17:12:27.254Z,1.00
2022-12-02T17:17:45.277Z,1.00
2022-12-02T17:22:50.243Z,1.00
2022-12-02T17:27:53.061Z,1.00
2022-12-02T17:32:57.180Z,1.00
2022-12-02T17:38:01.391Z,1.00
2022-12-02T17:43:04.179Z,1.00
2022-12-02T17:48:07.010Z,1.00
2022-12-02T17:53:11.094Z,1.00
2022-12-02T17:58:13.850Z,1.00
2022-12-02T18:03:16.943Z,1.00
2022-12-02T18:08:21.146Z,1.00
2022-12-02T18:13:24.059Z,1.00
2022-12-02T18:18:26.926Z,1.00
2022-12-02T18:23:31.005Z,1.00
2022-12-02T18:28:33.878Z,1.00
2022-12-02T18:33:36.693Z,1.00
2022-12-02T18:38:40.822Z,1.00
2022-12-02T18:43:43.651Z,1.00
2022-12-02T18:48:46.466Z,1.00
2022-12-02T18:53:50.895Z,1.00
2022-12-02T18:58:54.127Z,1.00
2022-12-02T19:03:57.944Z,1.00
2022-12-02T19:09:02.154Z,1.00
2022-12-02T19:14:04.981Z,1.00
2022-12-02T19:19:07.758Z,1.00
2022-12-02T19:24:11.865Z,1.00
2022-12-02T19:29:14.694Z,1.00
2022-12-02T19:34:17.467Z,1.00
2022-12-02T19:39:21.534Z,1.00
2022-12-02T19:44:24.426Z,1.00
2022-12-02T19:49:27.159Z,1.00
2022-12-02T19:54:31.238Z,1.00
2022-12-02T19:59:34.004Z,1.00
2022-12-02T20:04:41.957Z,1.00
2022-12-02T20:23:17.259Z,1.00
2022-12-02T20:28:52.808Z,1.00
2022-12-02T20:34:49.862Z,1.00
2022-12-02T20:46:58.511Z,1.00
2022-12-02T20:52:13.632Z,74.20
2022-12-02T20:58:20.165Z,46.30
2022-12-02T21:03:33.741Z,99.90
2022-12-02T21:09:00.312Z,85.00
2022-12-02T21:31:53.659Z,99.90
2022-12-02T21:37:03.318Z,99.90
2022-12-02T21:42:34.490Z,99.90
2022-12-02T21:47:44.287Z,99.90
2022-12-02T21:52:50.278Z,99.90
2022-12-02T21:57:57.691Z,99.90
2022-12-02T22:03:02.689Z,99.90
2022-12-02T22:08:06.697Z,99.90
2022-12-02T22:13:12.394Z,99.90
2022-12-02T22:18:15.582Z,99.90
2022-12-02T22:23:18.491Z,99.90
2022-12-02T22:28:22.608Z,99.90
2022-12-02T22:33:28.730Z,99.90
2022-12-02T22:38:35.692Z,99.90
2022-12-02T22:43:39.802Z,99.90
2022-12-02T22:48:42.561Z,99.90
2022-12-02T22:53:45.335Z,99.90
2022-12-02T22:58:49.467Z,99.90
2022-12-02T23:03:52.357Z,99.90
2022-12-02T23:08:55.138Z,99.90
2022-12-02T23:13:59.302Z,99.90
2022-12-02T23:19:02.047Z,99.90
2022-12-02T23:24:05.372Z,99.90
2022-12-02T23:29:09.511Z,99.90
2022-12-02T23:34:12.981Z,99.90
2022-12-02T23:39:15.765Z,99.90
2022-12-02T23:44:19.891Z,99.90
2022-12-02T23:49:22.657Z,99.90
2022-12-02T23:54:25.562Z,99.90
2022-12-02T23:59:29.638Z,99.90
